Nearby METAR Reports

KLNK - Lincoln, Nebraska, USA
Distance from station: WNW 8mi, 13km
Updated: Wed, 11-Dec-2019 5:54pm CST
Clear
Clear
 Wind from E
Wind: E 8 mph , 13 km/h
Temperature: 32°F , 0°C
Wind Chill: 25°F , -4°C
Dew Point: 21°F , -6°C
Humidity: 64%
Barometer: 30.23 inHg , 1023.7 hPa
Clouds: Clear
Visibility: 10 miles , 16 km
2019/12/11 23:54 KLNK 112354Z 10007KT 10SM CLR 00/M06 A3023 RMK AO2 SLP250 T00001056 10028 21011 58022
KAHQ - Wahoo, Nebraska, USA
Distance from station: N 31mi, 49km
Updated: Wed, 11-Dec-2019 5:55pm CST
Clear
Clear
 Wind from E
Wind: E 7 mph , 11 km/h
Temperature: 27°F , -3°C
Wind Chill: 19°F , -7°C
Dew Point: 21°F , -6°C
Humidity: 80%
Barometer: 30.23 inHg , 1023.7 hPa
Clouds: Clear
Visibility: 10 miles , 16 km
2019/12/11 23:55 KAHQ 112355Z AUTO 09006KT 10SM CLR M03/M06 A3023 RMK AO2 T10351061 10000 21037
 
KBIE - Beatrice Municip, Nebraska, USA
Distance from station: S 36mi, 57km
Updated: Wed, 11-Dec-2019 5:55pm CST
Clear
Clear
 Wind from ESE
Wind: ESE 6 mph , 9 km/h
Temperature: 34°F , 1°C
Wind Chill: 29°F , -2°C
Dew Point: 23°F , -5°C
Humidity: 65%
Barometer: 30.19 inHg , 1022.4 hPa
Clouds: Clear
Visibility: 10 miles , 16 km
2019/12/11 23:55 KBIE 112355Z AUTO 11005KT 10SM CLR 01/M05 A3019 RMK AO2 T00121050 10056 20012
KMLE - Omaha/Millard, Nebraska, USA
Distance from station: NE 39mi, 63km
Updated: Wed, 11-Dec-2019 5:55pm CST
Clear
Clear
 Wind from ESE
Wind: ESE 5 mph , 7 km/h
Temperature: 32°F , 0°C
Wind Chill: 27°F , -3°C
Dew Point: 19°F , -7°C
Humidity: 60%
Barometer: 30.25 inHg , 1024.4 hPa
Clouds: Clear
Visibility: 10 miles , 16 km
2019/12/11 23:55 KMLE 112355Z AUTO 11004KT 10SM CLR 00/M07 A3025 RMK AO2 T10021071 10009 21020
 
KPMV - Plattsmouth Muni, Nebraska, USA
Distance from station: ENE 39mi, 63km
Updated: Wed, 11-Dec-2019 6:15pm CST
Clear
Clear
 Wind from ESE
Wind: ESE 10 mph , 17 km/h
Temperature: 32°F , 0°C
Wind Chill: 24°F , -4°C
Dew Point: 25°F , -4°C
Humidity: 75%
Barometer: 30.24 inHg , 1024 hPa
Clouds: Clear
Visibility: 10 miles , 16 km
2019/12/12 00:15 KPMV 120015Z AUTO 11009KT 10SM CLR 00/M04 A3024 RMK AO2 T00001042
KAFK - Nebraska City, Nebraska, USA
Distance from station: ESE 43mi, 69km
Updated: Wed, 11-Dec-2019 5:55pm CST
Clear
Clear
 Wind from ESE
Wind: ESE 5 mph , 7 km/h
Temperature: 32°F , 0°C
Wind Chill: 27°F , -3°C
Dew Point: 25°F , -4°C
Humidity: 75%
Barometer: 30.24 inHg , 1024 hPa
Clouds: Clear
Visibility: 10 miles , 16 km
2019/12/11 23:55 KAFK 112355Z AUTO 11004KT 10SM CLR 00/M04 A3024 RMK AO2 T00011041 10035 20001
 
KOFF - Offutt Afb/Belle, Nebraska, USA
Distance from station: ENE 44mi, 70km
Updated: Wed, 11-Dec-2019 5:56pm CST
Mostly Cloudy
Mostly Cloudy
 Wind from E
Wind: E 8 mph , 13 km/h
Temperature: 30°F , -1°C
Wind Chill: 22°F , -6°C
Dew Point: 19°F , -7°C
Humidity: 64%
Barometer: 30.26 inHg , 1024.7 hPa
Clouds: Mostly Cloudy
Visibility: 10 miles , 16 km
Cloud details: Mostly Cloudy 22000 ft
2019/12/11 23:56 KOFF 112356Z 08007KT 10SM BKN220 M01/M07 A3026 RMK AO2A SLP269 RVRNO $
KFET - Fremont Muni Arp, Nebraska, USA
Distance from station: N 46mi, 74km
Updated: Wed, 11-Dec-2019 5:55pm CST
Clear
Clear
 Wind from E
Wind: E 6 mph , 9 km/h
Temperature: 28°F , -2°C
Wind Chill: 21°F , -6°C
Dew Point: 19°F , -7°C
Humidity: 69%
Barometer: 30.23 inHg , 1023.7 hPa
Clouds: Clear
Visibility: 10 miles , 16 km
2019/12/11 23:55 KFET 112355Z AUTO 10005KT 10SM CLR M02/M07 A3023 RMK AO2 T10241066 11008 21032
 
KBTA - Blair Muni, Nebraska, USA
Distance from station: NNE 51mi, 82km
Updated: Wed, 11-Dec-2019 5:55pm CST
Clear
Clear
 Wind from E
Wind: E 8 mph , 13 km/h
Temperature: 27°F , -3°C
Wind Chill: 19°F , -7°C
Dew Point: 19°F , -7°C
Humidity: 74%
Barometer: 30.23 inHg , 1023.7 hPa
Clouds: Clear
Visibility: 10 miles , 16 km
2019/12/11 23:55 KBTA 112355Z AUTO 09007KT 10SM CLR M03/M07 A3023 RMK AO2 T10291072 11011 21036
KJYR - York, Nebraska, USA
Distance from station: W 52mi, 84km
Updated: Wed, 11-Dec-2019 6:15pm CST
Clear
Clear
 Wind from SE
Wind: SE 10 mph , 17 km/h
Temperature: 32°F , 0°C
Wind Chill: 24°F , -4°C
Dew Point: 25°F , -4°C
Humidity: 75%
Barometer: 30.15 inHg , 1021 hPa
Clouds: Clear
Visibility: 10 miles , 16 km
2019/12/12 00:15 KJYR 120015Z AUTO 13009KT 10SM CLR 00/M04 A3015 RMK AO2
 
KOMA - Omaha/Eppley, Nebraska, USA
Distance from station: NE 53mi, 85km
Updated: Wed, 11-Dec-2019 5:52pm CST
Overcast
Overcast
 Wind from ESE
Wind: ESE 10 mph , 17 km/h
Temperature: 28°F , -2°C
Wind Chill: 19°F , -7°C
Dew Point: 18°F , -8°C
Humidity: 64%
Barometer: 30.26 inHg , 1024.7 hPa
Clouds: Overcast
Visibility: 10 miles , 16 km
Cloud details: Overcast 20000 ft
2019/12/11 23:52 KOMA 112352Z 11009KT 10SM OVC200 M02/M08 A3026 RMK AO2 SLP261 T10171078 11006 21033 58025
KOLU - Columbus Muni, Nebraska, USA
Distance from station: NW 58mi, 93km
Updated: Wed, 11-Dec-2019 5:56pm CST
Clear
Clear
 Wind from E
Wind: E 10 mph , 17 km/h
Temperature: 25°F , -4°C
Wind Chill: 15°F , -9°C
Dew Point: 19°F , -7°C
Humidity: 80%
Barometer: 30.19 inHg , 1022.4 hPa
Clouds: Clear
Visibility: 10 miles , 16 km
2019/12/11 23:56 KOLU 112356Z AUTO 09009KT 10SM CLR M04/M07 A3019 RMK AO2 SLP248 T10391067 11017 21044 58025 FZRANO